sensor_id;sensor_type;location;lat;lon;timestamp;temperature;humidity
78775;DHT22;68119;43.398;3.676;2023-03-12T00:01:50;14.90;61.10
78775;DHT22;68119;43.398;3.676;2023-03-12T00:04:22;14.80;61.30
78775;DHT22;68119;43.398;3.676;2023-03-12T00:06:56;14.90;60.90
78775;DHT22;68119;43.398;3.676;2023-03-12T00:09:25;14.90;60.70
78775;DHT22;68119;43.398;3.676;2023-03-12T00:11:53;14.90;60.40
78775;DHT22;68119;43.398;3.676;2023-03-12T00:14:24;14.90;60.40
78775;DHT22;68119;43.398;3.676;2023-03-12T00:16:50;14.80;60.80
78775;DHT22;68119;43.398;3.676;2023-03-12T00:19:22;14.80;60.70
78775;DHT22;68119;43.398;3.676;2023-03-12T00:21:53;14.80;60.80
78775;DHT22;68119;43.398;3.676;2023-03-12T00:24:26;14.70;60.50
78775;DHT22;68119;43.398;3.676;2023-03-12T00:26:58;14.70;60.50
78775;DHT22;68119;43.398;3.676;2023-03-12T00:29:23;14.70;60.50
78775;DHT22;68119;43.398;3.676;2023-03-12T00:31:55;14.70;60.20
78775;DHT22;68119;43.398;3.676;2023-03-12T00:34:25;14.70;60.50
78775;DHT22;68119;43.398;3.676;2023-03-12T00:36:51;14.70;60.30
78775;DHT22;68119;43.398;3.676;2023-03-12T00:39:20;14.80;59.80
78775;DHT22;68119;43.398;3.676;2023-03-12T00:41:45;14.70;59.70
78775;DHT22;68119;43.398;3.676;2023-03-12T00:44:17;14.70;59.60
78775;DHT22;68119;43.398;3.676;2023-03-12T00:46:50;14.70;59.70
78775;DHT22;68119;43.398;3.676;2023-03-12T00:49:30;14.70;59.40
78775;DHT22;68119;43.398;3.676;2023-03-12T00:52:01;14.60;59.30
78775;DHT22;68119;43.398;3.676;2023-03-12T00:54:32;14.70;58.20
78775;DHT22;68119;43.398;3.676;2023-03-12T00:57:01;14.70;57.90
78775;DHT22;68119;43.398;3.676;2023-03-12T00:59:35;14.80;57.40
78775;DHT22;68119;43.398;3.676;2023-03-12T01:02:05;14.80;57.10
78775;DHT22;68119;43.398;3.676;2023-03-12T01:04:42;14.80;56.80
78775;DHT22;68119;43.398;3.676;2023-03-12T01:07:07;14.80;56.20
78775;DHT22;68119;43.398;3.676;2023-03-12T01:09:38;14.80;56.10
78775;DHT22;68119;43.398;3.676;2023-03-12T01:12:05;14.80;55.70
78775;DHT22;68119;43.398;3.676;2023-03-12T01:14:39;14.90;55.60
78775;DHT22;68119;43.398;3.676;2023-03-12T01:17:12;15.00;55.40
78775;DHT22;68119;43.398;3.676;2023-03-12T01:19:43;14.90;55.50
78775;DHT22;68119;43.398;3.676;2023-03-12T01:22:12;15.00;55.30
78775;DHT22;68119;43.398;3.676;2023-03-12T01:24:43;14.90;55.30
78775;DHT22;68119;43.398;3.676;2023-03-12T01:27:14;14.90;55.40
78775;DHT22;68119;43.398;3.676;2023-03-12T01:29:48;14.80;55.50
78775;DHT22;68119;43.398;3.676;2023-03-12T01:32:21;14.90;55.30
78775;DHT22;68119;43.398;3.676;2023-03-12T01:34:50;14.90;55.20
78775;DHT22;68119;43.398;3.676;2023-03-12T01:37:27;14.80;55.40
78775;DHT22;68119;43.398;3.676;2023-03-12T01:39:53;14.70;55.40
78775;DHT22;68119;43.398;3.676;2023-03-12T01:42:23;14.70;55.40
78775;DHT22;68119;43.398;3.676;2023-03-12T01:45:02;14.80;55.20
78775;DHT22;68119;43.398;3.676;2023-03-12T01:47:33;14.80;55.20
78775;DHT22;68119;43.398;3.676;2023-03-12T01:50:10;14.70;55.40
78775;DHT22;68119;43.398;3.676;2023-03-12T01:52:38;14.70;55.60
78775;DHT22;68119;43.398;3.676;2023-03-12T01:55:14;14.60;55.70
78775;DHT22;68119;43.398;3.676;2023-03-12T01:57:58;14.60;55.70
78775;DHT22;68119;43.398;3.676;2023-03-12T02:00:32;14.70;55.50
78775;DHT22;68119;43.398;3.676;2023-03-12T02:03:06;14.70;55.50
78775;DHT22;68119;43.398;3.676;2023-03-12T02:05:52;14.80;55.20
78775;DHT22;68119;43.398;3.676;2023-03-12T02:08:22;14.80;55.50
78775;DHT22;68119;43.398;3.676;2023-03-12T02:10:56;14.70;55.50
78775;DHT22;68119;43.398;3.676;2023-03-12T02:13:22;14.60;55.90
78775;DHT22;68119;43.398;3.676;2023-03-12T02:15:50;14.60;56.00
78775;DHT22;68119;43.398;3.676;2023-03-12T02:18:21;14.60;56.20
78775;DHT22;68119;43.398;3.676;2023-03-12T02:21:19;14.50;56.50
78775;DHT22;68119;43.398;3.676;2023-03-12T02:24:21;14.40;56.80
78775;DHT22;68119;43.398;3.676;2023-03-12T02:26:53;14.40;57.10
78775;DHT22;68119;43.398;3.676;2023-03-12T02:29:27;14.30;57.30
78775;DHT22;68119;43.398;3.676;2023-03-12T02:31:58;14.20;57.60
78775;DHT22;68119;43.398;3.676;2023-03-12T02:34:30;14.10;58.00
78775;DHT22;68119;43.398;3.676;2023-03-12T02:37:04;14.10;58.10
78775;DHT22;68119;43.398;3.676;2023-03-12T02:39:40;14.20;58.00
78775;DHT22;68119;43.398;3.676;2023-03-12T02:42:13;14.10;58.20
78775;DHT22;68119;43.398;3.676;2023-03-12T02:44:39;14.10;58.20
78775;DHT22;68119;43.398;3.676;2023-03-12T02:47:13;14.00;58.40
78775;DHT22;68119;43.398;3.676;2023-03-12T02:49:42;14.00;58.50
78775;DHT22;68119;43.398;3.676;2023-03-12T02:52:12;14.00;58.60
78775;DHT22;68119;43.398;3.676;2023-03-12T02:54:45;14.00;58.70
78775;DHT22;68119;43.398;3.676;2023-03-12T02:57:17;13.90;59.00
78775;DHT22;68119;43.398;3.676;2023-03-12T02:59:45;13.80;59.40
78775;DHT22;68119;43.398;3.676;2023-03-12T03:02:16;13.70;59.60
78775;DHT22;68119;43.398;3.676;2023-03-12T03:04:53;13.60;59.70
78775;DHT22;68119;43.398;3.676;2023-03-12T03:07:18;13.60;59.90
78775;DHT22;68119;43.398;3.676;2023-03-12T03:09:47;13.50;60.30
78775;DHT22;68119;43.398;3.676;2023-03-12T03:12:19;13.30;60.70
78775;DHT22;68119;43.398;3.676;2023-03-12T03:14:54;13.30;61.00
78775;DHT22;68119;43.398;3.676;2023-03-12T03:17:23;13.10;61.50
78775;DHT22;68119;43.398;3.676;2023-03-12T03:19:52;13.10;61.80
78775;DHT22;68119;43.398;3.676;2023-03-12T03:22:24;13.10;62.10
78775;DHT22;68119;43.398;3.676;2023-03-12T03:24:50;13.10;62.10
78775;DHT22;68119;43.398;3.676;2023-03-12T03:27:24;13.10;62.00
78775;DHT22;68119;43.398;3.676;2023-03-12T03:29:55;13.10;62.10
78775;DHT22;68119;43.398;3.676;2023-03-12T03:32:24;13.10;61.90
78775;DHT22;68119;43.398;3.676;2023-03-12T03:34:57;13.10;62.30
78775;DHT22;68119;43.398;3.676;2023-03-12T03:37:25;13.10;62.30
78775;DHT22;68119;43.398;3.676;2023-03-12T03:39:57;13.30;62.30
78775;DHT22;68119;43.398;3.676;2023-03-12T03:42:31;13.50;62.20
78775;DHT22;68119;43.398;3.676;2023-03-12T03:45:02;13.50;62.20
78775;DHT22;68119;43.398;3.676;2023-03-12T03:47:31;13.50;62.20
78775;DHT22;68119;43.398;3.676;2023-03-12T03:49:59;13.50;62.20
78775;DHT22;68119;43.398;3.676;2023-03-12T03:52:30;13.50;62.50
78775;DHT22;68119;43.398;3.676;2023-03-12T03:55:06;13.50;62.60
78775;DHT22;68119;43.398;3.676;2023-03-12T03:57:37;13.50;62.90
78775;DHT22;68119;43.398;3.676;2023-03-12T04:00:11;13.50;62.90
78775;DHT22;68119;43.398;3.676;2023-03-12T04:02:45;13.50;63.10
78775;DHT22;68119;43.398;3.676;2023-03-12T04:05:17;13.40;63.20
78775;DHT22;68119;43.398;3.676;2023-03-12T04:07:47;13.50;63.00
78775;DHT22;68119;43.398;3.676;2023-03-12T04:10:24;13.50;63.20
78775;DHT22;68119;43.398;3.676;2023-03-12T04:12:50;13.40;63.30
78775;DHT22;68119;43.398;3.676;2023-03-12T04:15:20;13.40;63.50
78775;DHT22;68119;43.398;3.676;2023-03-12T04:17:52;13.30;63.60
78775;DHT22;68119;43.398;3.676;2023-03-12T04:20:26;13.40;63.50
78775;DHT22;68119;43.398;3.676;2023-03-12T04:22:57;13.50;63.40
78775;DHT22;68119;43.398;3.676;2023-03-12T04:25:37;13.50;63.50
78775;DHT22;68119;43.398;3.676;2023-03-12T04:28:06;13.50;63.40
78775;DHT22;68119;43.398;3.676;2023-03-12T04:30:36;13.50;63.30
78775;DHT22;68119;43.398;3.676;2023-03-12T04:33:08;13.50;63.20
78775;DHT22;68119;43.398;3.676;2023-03-12T04:35:33;13.50;63.20
78775;DHT22;68119;43.398;3.676;2023-03-12T04:38:07;13.50;63.20
78775;DHT22;68119;43.398;3.676;2023-03-12T04:40:36;13.50;63.10
78775;DHT22;68119;43.398;3.676;2023-03-12T04:43:01;13.50;62.80
78775;DHT22;68119;43.398;3.676;2023-03-12T04:45:33;13.50;62.70
78775;DHT22;68119;43.398;3.676;2023-03-12T04:48:07;13.60;62.30
78775;DHT22;68119;43.398;3.676;2023-03-12T04:50:33;13.50;62.20
78775;DHT22;68119;43.398;3.676;2023-03-12T04:53:01;13.60;62.00
78775;DHT22;68119;43.398;3.676;2023-03-12T04:55:38;13.60;62.00
78775;DHT22;68119;43.398;3.676;2023-03-12T04:58:10;13.50;62.20
78775;DHT22;68119;43.398;3.676;2023-03-12T05:00:44;13.50;62.20
78775;DHT22;68119;43.398;3.676;2023-03-12T05:03:16;13.50;62.50
78775;DHT22;68119;43.398;3.676;2023-03-12T05:05:45;13.50;62.30
78775;DHT22;68119;43.398;3.676;2023-03-12T05:08:16;13.50;62.30
78775;DHT22;68119;43.398;3.676;2023-03-12T05:10:47;13.70;61.70
78775;DHT22;68119;43.398;3.676;2023-03-12T05:13:22;13.70;61.60
78775;DHT22;68119;43.398;3.676;2023-03-12T05:15:53;13.70;61.70
78775;DHT22;68119;43.398;3.676;2023-03-12T05:18:21;13.70;61.80
78775;DHT22;68119;43.398;3.676;2023-03-12T05:21:07;13.60;62.10
78775;DHT22;68119;43.398;3.676;2023-03-12T05:23:36;13.60;62.20
78775;DHT22;68119;43.398;3.676;2023-03-12T05:26:06;13.60;62.00
78775;DHT22;68119;43.398;3.676;2023-03-12T05:28:41;13.70;61.70
78775;DHT22;68119;43.398;3.676;2023-03-12T05:31:11;13.80;61.50
78775;DHT22;68119;43.398;3.676;2023-03-12T05:33:43;13.90;61.20
78775;DHT22;68119;43.398;3.676;2023-03-12T05:36:12;13.90;61.30
78775;DHT22;68119;43.398;3.676;2023-03-12T05:38:40;13.90;61.00
78775;DHT22;68119;43.398;3.676;2023-03-12T05:41:09;14.00;60.90
78775;DHT22;68119;43.398;3.676;2023-03-12T05:43:49;13.90;61.10
78775;DHT22;68119;43.398;3.676;2023-03-12T05:46:21;13.90;61.00
78775;DHT22;68119;43.398;3.676;2023-03-12T05:48:50;13.90;61.00
78775;DHT22;68119;43.398;3.676;2023-03-12T05:51:19;13.90;61.40
78775;DHT22;68119;43.398;3.676;2023-03-12T05:53:50;13.90;61.40
78775;DHT22;68119;43.398;3.676;2023-03-12T05:56:17;13.90;61.40
78775;DHT22;68119;43.398;3.676;2023-03-12T05:58:51;13.90;61.40
78775;DHT22;68119;43.398;3.676;2023-03-12T06:01:25;13.90;61.50
78775;DHT22;68119;43.398;3.676;2023-03-12T06:03:56;13.90;61.60
78775;DHT22;68119;43.398;3.676;2023-03-12T06:06:23;13.90;61.50
78775;DHT22;68119;43.398;3.676;2023-03-12T06:08:53;13.90;61.40
78775;DHT22;68119;43.398;3.676;2023-03-12T06:11:21;13.90;61.20
78775;DHT22;68119;43.398;3.676;2023-03-12T06:13:49;13.90;61.30
78775;DHT22;68119;43.398;3.676;2023-03-12T06:16:29;13.90;61.30
78775;DHT22;68119;43.398;3.676;2023-03-12T06:19:01;13.90;61.30
78775;DHT22;68119;43.398;3.676;2023-03-12T06:21:35;13.90;61.30
78775;DHT22;68119;43.398;3.676;2023-03-12T06:24:04;13.90;61.20
78775;DHT22;68119;43.398;3.676;2023-03-12T06:26:33;13.90;61.20
78775;DHT22;68119;43.398;3.676;2023-03-12T06:29:07;13.90;61.10
78775;DHT22;68119;43.398;3.676;2023-03-12T06:31:35;14.00;60.80
78775;DHT22;68119;43.398;3.676;2023-03-12T06:34:09;14.00;60.80
78775;DHT22;68119;43.398;3.676;2023-03-12T06:36:38;14.00;60.80
78775;DHT22;68119;43.398;3.676;2023-03-12T06:39:06;14.00;60.80
78775;DHT22;68119;43.398;3.676;2023-03-12T06:41:34;14.00;60.80
78775;DHT22;68119;43.398;3.676;2023-03-12T06:44:02;13.90;60.70
78775;DHT22;68119;43.398;3.676;2023-03-12T06:46:39;13.90;60.80
78775;DHT22;68119;43.398;3.676;2023-03-12T06:49:10;14.00;60.60
78775;DHT22;68119;43.398;3.676;2023-03-12T06:51:36;14.10;60.60
78775;DHT22;68119;43.398;3.676;2023-03-12T06:54:04;14.10;60.60
78775;DHT22;68119;43.398;3.676;2023-03-12T06:56:38;14.10;60.50
78775;DHT22;68119;43.398;3.676;2023-03-12T06:59:07;14.10;60.40
78775;DHT22;68119;43.398;3.676;2023-03-12T07:01:33;14.20;60.30
78775;DHT22;68119;43.398;3.676;2023-03-12T07:04:04;14.20;60.20
78775;DHT22;68119;43.398;3.676;2023-03-12T07:06:35;14.30;60.20
78775;DHT22;68119;43.398;3.676;2023-03-12T07:09:02;14.30;60.10
78775;DHT22;68119;43.398;3.676;2023-03-12T07:11:30;14.30;60.00
78775;DHT22;68119;43.398;3.676;2023-03-12T07:13:56;14.40;60.10
78775;DHT22;68119;43.398;3.676;2023-03-12T07:16:28;14.30;60.10
78775;DHT22;68119;43.398;3.676;2023-03-12T07:18:54;14.30;60.10
78775;DHT22;68119;43.398;3.676;2023-03-12T07:21:20;14.30;60.30
78775;DHT22;68119;43.398;3.676;2023-03-12T07:23:54;14.30;60.40
78775;DHT22;68119;43.398;3.676;2023-03-12T07:26:25;14.30;60.00
78775;DHT22;68119;43.398;3.676;2023-03-12T07:28:50;14.30;59.90
78775;DHT22;68119;43.398;3.676;2023-03-12T07:31:19;14.40;59.70
78775;DHT22;68119;43.398;3.676;2023-03-12T07:33:45;14.60;58.80
78775;DHT22;68119;43.398;3.676;2023-03-12T07:36:16;14.70;58.40
78775;DHT22;68119;43.398;3.676;2023-03-12T07:38:45;14.80;58.40
78775;DHT22;68119;43.398;3.676;2023-03-12T07:41:13;14.80;58.00
78775;DHT22;68119;43.398;3.676;2023-03-12T07:43:41;14.80;58.00
78775;DHT22;68119;43.398;3.676;2023-03-12T07:46:13;14.90;58.00
78775;DHT22;68119;43.398;3.676;2023-03-12T07:48:42;15.10;57.80
78775;DHT22;68119;43.398;3.676;2023-03-12T07:51:15;15.10;57.80
78775;DHT22;68119;43.398;3.676;2023-03-12T07:53:49;15.20;57.30
78775;DHT22;68119;43.398;3.676;2023-03-12T07:56:20;15.30;57.40
78775;DHT22;68119;43.398;3.676;2023-03-12T07:58:57;15.40;56.90
78775;DHT22;68119;43.398;3.676;2023-03-12T08:01:25;15.40;56.60
78775;DHT22;68119;43.398;3.676;2023-03-12T08:04:01;15.40;56.80
78775;DHT22;68119;43.398;3.676;2023-03-12T08:06:32;15.30;56.90
78775;DHT22;68119;43.398;3.676;2023-03-12T08:09:04;15.40;56.50
78775;DHT22;68119;43.398;3.676;2023-03-12T08:11:35;15.60;56.50
78775;DHT22;68119;43.398;3.676;2023-03-12T08:14:03;15.80;56.30
78775;DHT22;68119;43.398;3.676;2023-03-12T08:16:29;15.90;55.70
78775;DHT22;68119;43.398;3.676;2023-03-12T08:19:02;15.90;55.50
78775;DHT22;68119;43.398;3.676;2023-03-12T08:21:34;15.90;55.90
78775;DHT22;68119;43.398;3.676;2023-03-12T08:23:59;16.00;55.10
78775;DHT22;68119;43.398;3.676;2023-03-12T08:26:28;16.00;54.70
78775;DHT22;68119;43.398;3.676;2023-03-12T08:28:57;16.40;53.80
78775;DHT22;68119;43.398;3.676;2023-03-12T08:31:29;16.40;54.00
78775;DHT22;68119;43.398;3.676;2023-03-12T08:33:55;16.60;53.70
78775;DHT22;68119;43.398;3.676;2023-03-12T08:36:21;17.90;51.10
78775;DHT22;68119;43.398;3.676;2023-03-12T08:38:49;20.00;48.20
78775;DHT22;68119;43.398;3.676;2023-03-12T08:41:20;19.70;47.90
78775;DHT22;68119;43.398;3.676;2023-03-12T08:43:52;20.30;48.00
78775;DHT22;68119;43.398;3.676;2023-03-12T08:46:23;19.90;47.40
78775;DHT22;68119;43.398;3.676;2023-03-12T08:48:51;20.20;47.40
78775;DHT22;68119;43.398;3.676;2023-03-12T08:51:20;19.70;47.00
78775;DHT22;68119;43.398;3.676;2023-03-12T08:53:51;20.00;47.00
78775;DHT22;68119;43.398;3.676;2023-03-12T08:56:22;19.10;47.90
78775;DHT22;68119;43.398;3.676;2023-03-12T08:59:01;19.50;47.20
78775;DHT22;68119;43.398;3.676;2023-03-12T09:01:26;21.10;45.20
78775;DHT22;68119;43.398;3.676;2023-03-12T09:04:02;22.20;44.70
78775;DHT22;68119;43.398;3.676;2023-03-12T09:06:33;22.20;43.60
78775;DHT22;68119;43.398;3.676;2023-03-12T09:09:05;21.40;45.20
78775;DHT22;68119;43.398;3.676;2023-03-12T09:11:34;20.80;45.70
78775;DHT22;68119;43.398;3.676;2023-03-12T09:14:01;21.20;45.20
78775;DHT22;68119;43.398;3.676;2023-03-12T09:16:32;23.40;42.90
78775;DHT22;68119;43.398;3.676;2023-03-12T09:18:58;22.20;43.30
78775;DHT22;68119;43.398;3.676;2023-03-12T09:21:23;22.50;43.30
78775;DHT22;68119;43.398;3.676;2023-03-12T09:23:52;23.60;42.50
78775;DHT22;68119;43.398;3.676;2023-03-12T09:26:26;23.90;41.50
78775;DHT22;68119;43.398;3.676;2023-03-12T09:28:54;24.30;41.40
78775;DHT22;68119;43.398;3.676;2023-03-12T09:31:26;22.60;43.40
78775;DHT22;68119;43.398;3.676;2023-03-12T09:33:52;20.60;45.70
78775;DHT22;68119;43.398;3.676;2023-03-12T09:36:20;20.10;47.00
78775;DHT22;68119;43.398;3.676;2023-03-12T09:38:48;19.40;48.00
78775;DHT22;68119;43.398;3.676;2023-03-12T09:41:38;19.70;48.20
78775;DHT22;68119;43.398;3.676;2023-03-12T09:46:56;19.00;49.80
78775;DHT22;68119;43.398;3.676;2023-03-12T09:52:21;18.80;50.00
78775;DHT22;68119;43.398;3.676;2023-03-12T09:55:11;18.80;49.90
78775;DHT22;68119;43.398;3.676;2023-03-12T09:57:47;19.20;49.50
78775;DHT22;68119;43.398;3.676;2023-03-12T10:00:25;19.30;49.10
78775;DHT22;68119;43.398;3.676;2023-03-12T10:26:43;18.70;49.90
78775;DHT22;68119;43.398;3.676;2023-03-12T10:29:34;19.30;49.30
78775;DHT22;68119;43.398;3.676;2023-03-12T10:34:45;19.30;49.40
78775;DHT22;68119;43.398;3.676;2023-03-12T10:37:41;19.60;49.10
78775;DHT22;68119;43.398;3.676;2023-03-12T10:40:20;19.50;49.40
78775;DHT22;68119;43.398;3.676;2023-03-12T10:42:49;19.70;49.00
78775;DHT22;68119;43.398;3.676;2023-03-12T10:45:24;19.70;48.90
78775;DHT22;68119;43.398;3.676;2023-03-12T10:48:03;19.60;49.50
78775;DHT22;68119;43.398;3.676;2023-03-12T10:50:39;20.00;48.50
78775;DHT22;68119;43.398;3.676;2023-03-12T10:56:08;20.00;48.80
78775;DHT22;68119;43.398;3.676;2023-03-12T10:58:44;20.50;48.00
78775;DHT22;68119;43.398;3.676;2023-03-12T11:03:52;20.00;49.00
78775;DHT22;68119;43.398;3.676;2023-03-12T11:06:34;20.50;48.40
78775;DHT22;68119;43.398;3.676;2023-03-12T11:09:10;20.20;49.10
78775;DHT22;68119;43.398;3.676;2023-03-12T11:11:40;20.50;49.40
78775;DHT22;68119;43.398;3.676;2023-03-12T11:16:43;20.30;48.40
78775;DHT22;68119;43.398;3.676;2023-03-12T11:19:25;20.00;49.00
78775;DHT22;68119;43.398;3.676;2023-03-12T11:21:56;20.30;48.30
78775;DHT22;68119;43.398;3.676;2023-03-12T11:24:29;19.90;48.80
78775;DHT22;68119;43.398;3.676;2023-03-12T11:27:06;20.40;48.70
78775;DHT22;68119;43.398;3.676;2023-03-12T11:29:44;20.30;48.30
78775;DHT22;68119;43.398;3.676;2023-03-12T11:32:30;20.80;47.60
78775;DHT22;68119;43.398;3.676;2023-03-12T11:35:18;20.70;47.90
78775;DHT22;68119;43.398;3.676;2023-03-12T11:38:00;20.40;48.40
78775;DHT22;68119;43.398;3.676;2023-03-12T11:43:44;22.70;45.10
78775;DHT22;68119;43.398;3.676;2023-03-12T11:46:26;23.60;44.40
78775;DHT22;68119;43.398;3.676;2023-03-12T11:52:11;27.60;39.90
78775;DHT22;68119;43.398;3.676;2023-03-12T11:54:55;26.10;40.30
78775;DHT22;68119;43.398;3.676;2023-03-12T11:57:50;25.80;40.40
